GW6401 Weather Reports


time (UTC)temp
F
wind
direction
speed
knots
gust
knots
rain 1hr
in
rain 24hr
in
rain mn
in
humidity
%
barometer
mb
20260906122041 65 246 0.0 0.0 0.00 0.00 0.00 99 1020.2
20260906121536 64 246 0.0 0.0 0.00 0.00 0.00 99 1020.2
20260906121032 64 246 0.0 0.0 0.00 0.00 0.00 99 1020.0
20260906120527 64 247 0.0 0.0 0.00 0.00 0.00 99 1019.7
20260906120025 64 249 0.0 0.0 0.00 0.00 0.00 99 1019.8
20260906115524 64 249 0.0 0.0 0.00 0.00 0.00 99 1019.7
20260906115019 64 250 0.0 0.0 0.00 0.00 0.00 99 1019.8
20260906114514 64 251 0.0 0.0 0.00 0.00 0.00 99 1019.7
20260906114010 63 255 0.0 0.0 0.00 0.00 0.00 99 1019.6
20260906113508 63 248 0.0 0.0 0.00 0.00 0.00 99 1019.4
20260906113004 63 254 0.0 0.0 0.00 0.00 0.00 99 1019.5
20260906112459 64 249 0.0 0.0 0.00 0.00 0.00 99 1019.3
20260906111955 63 249 0.0 0.0 0.00 0.00 0.00 99 1019.4
20260906111454 64 248 0.0 0.0 0.00 0.00 0.00 99 1019.4
20260906110949 64 248 0.0 0.0 0.00 0.00 0.00 99 1019.5
20260906110444 64 252 0.0 0.0 0.00 0.00 0.00 99 1019.4
20260906105943 64 264 0.0 0.0 0.00 0.00 0.00 99 1019.2
20260906105439 64 257 0.0 0.0 0.00 0.00 0.00 99 1019.3
20260906104935 64 252 0.0 0.0 0.00 0.00 0.00 99 1019.3
20260906104434 64 279 0.0 0.9 0.00 0.00 0.00 99 1019.3
20260906103933 64 262 0.0 0.0 0.00 0.00 0.00 99 1019.3
20260906103431 64 253 0.0 0.9 0.00 0.00 0.00 99 1019.2
20260906102927 64 256 0.0 0.0 0.00 0.00 0.00 99 1019.1
20260906102426 64 299 0.0 0.0 0.00 0.00 0.00 99 1019.2
20260906101921 64 266 0.0 0.0 0.00 0.00 0.00 99 1019.1
20260906101416 64 267 0.0 0.0 0.00 0.00 0.00 99 1019.1
20260906100912 64 254 0.0 0.0 0.00 0.00 0.00 99 1018.9
20260906100412 64 260 0.0 0.0 0.00 0.00 0.00 99 1018.8
20260906095906 64 257 0.0 0.0 0.00 0.00 0.00 99 1018.8
20260906095402 64 250 0.0 0.0 0.00 0.00 0.00 99 1018.7
20260906094901 64 254 0.0 0.0 0.00 0.00 0.00 99 1018.6
20260906094356 64 268 0.0 0.9 0.00 0.00 0.00 99 1019.0
20260906093853 64 263 0.0 0.0 0.00 0.00 0.00 99 1018.9
20260906093349 64 271 0.9 0.9 0.00 0.00 0.00 99 1018.8
20260906092848 64 308 0.9 1.7 0.00 0.00 0.00 99 1018.8
20260906092343 64 276 1.7 1.7 0.00 0.00 0.00 99 1018.8
20260906091839 64 287 0.9 0.9 0.00 0.00 0.00 99 1018.6
20260906091335 64 299 0.9 0.9 0.00 0.00 0.00 99 1018.9
20260906090831 64 263 0.0 0.0 0.00 0.00 0.00 99 1018.9
20260906090330 64 264 0.0 0.0 0.00 0.00 0.00 99 1018.9
20260906085830 64 257 0.0 0.0 0.00 0.00 0.00 99 1018.7
20260906085330 65 260 0.9 0.9 0.00 0.00 0.00 99 1018.8
20260906084825 65 282 0.9 0.9 0.00 0.00 0.00 99 1018.9
20260906084324 65 276 0.0 0.9 0.00 0.00 0.00 99 1018.8
20260906083819 65 331 0.9 1.7 0.00 0.00 0.00 99 1019.0
20260906083315 65 340 1.7 1.7 0.00 0.00 0.00 99 1018.9
20260906082814 65 271 0.0 0.0 0.00 0.00 0.00 99 1018.7
20260906082310 65 274 0.9 0.9 0.00 0.00 0.00 99 1018.8
20260906081805 65 274 0.9 0.9 0.00 0.00 0.00 99 1018.6
20260906081301 65 260 0.0 0.9 0.00 0.00 0.00 98 1018.9
20260906080757 65 317 1.7 1.7 0.00 0.00 0.00 98 1018.9
20260906080254 65 278 0.9 0.9 0.00 0.00 0.00 98 1018.6
20260906075753 65 322 0.9 1.7 0.00 0.00 0.00 98 1018.5
20260906075253 64 272 0.0 0.9 0.00 0.00 0.00 98 1018.7
20260906074748 64 254 0.0 0.0 0.00 0.00 0.00 98 1018.4
20260906074247 65 253 0.0 0.0 0.00 0.00 0.00 98 1018.8
20260906073742 65 251 0.0 0.0 0.00 0.00 0.00 98 1018.7
20260906073242 65 262 0.0 0.0 0.00 0.00 0.00 98 1018.6
20260906072738 65 254 0.0 0.0 0.00 0.00 0.00 98 1018.8
20260906072233 65 254 0.0 0.0 0.00 0.00 0.00 98 1018.7
20260906071729 65 265 0.0 0.0 0.00 0.00 0.00 98 1018.7
20260906071229 65 253 0.0 0.0 0.00 0.00 0.00 98 1018.6
20260906070726 65 253 0.0 0.0 0.00 0.00 0.00 98 1018.7
20260906070221 65 261 0.0 0.0 0.00 0.00 0.00 98 1018.5
20260906065720 65 253 0.0 0.0 0.00 0.00 0.00 98 1018.6
20260906065216 65 261 0.0 0.0 0.00 0.00 0.00 98 1018.5
20260906064711 65 285 0.9 0.9 0.00 0.00 0.00 98 1018.7
20260906064207 66 282 0.9 0.9 0.00 0.00 0.00 98 1018.7
20260906063701 66 266 0.0 0.9 0.00 0.00 0.00 98 1018.7
20260906063157 66 288 0.0 0.9 0.00 0.00 0.00 98 1018.7
20260906062653 66 264 0.0 0.0 0.00 0.00 0.00 98 1018.8
20260906062151 66 268 0.0 0.0 0.00 0.00 0.00 98 1018.6
20260906061648 66 276 0.0 0.9 0.00 0.00 0.00 98 1018.6
20260906061148 66 291 1.7 1.7 0.00 0.00 0.00 97 1018.8
20260906060645 66 345 1.7 1.7 0.00 0.00 0.00 97 1018.7
20260906060142 66 341 0.9 1.7 0.00 0.00 0.00 97 1018.5
20260906055637 66 264 0.0 0.0 0.00 0.00 0.00 97 1018.6
20260906055132 66 264 0.0 0.9 0.00 0.00 0.00 97 1018.5
20260906054627 66 266 0.0 0.9 0.00 0.00 0.00 97 1018.6
20260906054122 66 253 0.0 0.0 0.00 0.00 0.00 97 1018.5
20260906053619 66 258 0.0 0.0 0.00 0.00 0.00 97 1018.6
20260906053114 66 251 0.0 0.0 0.00 0.00 0.00 97 1018.4
20260906052609 67 326 0.9 0.9 0.00 0.00 0.00 97 1018.6
20260906052106 67 269 0.0 0.9 0.00 0.00 0.00 96 1018.4
20260906051602 67 330 0.9 0.9 0.00 0.00 0.00 96 1018.6
20260906051057 67 259 0.0 0.0 0.00 0.00 0.00 96 1018.5
20260906050552 67 253 0.0 0.0 0.00 0.00 0.00 96 1018.3
20260906050047 67 250 0.0 0.0 0.00 0.00 0.00 95 1018.4
20260906045545 67 264 0.0 0.0 0.00 0.00 0.00 95 1018.4
20260906045041 67 279 0.9 0.9 0.00 0.00 0.00 95 1018.3
20260906044536 67 295 0.0 0.0 0.00 0.00 0.00 95 1018.3
20260906044032 67 251 0.0 0.0 0.00 0.00 0.00 95 1018.2
20260906043527 68 290 0.0 0.0 0.00 0.00 0.00 95 1018.1
20260906043024 68 255 0.0 0.0 0.00 0.00 0.00 95 1017.8
20260906042522 68 254 0.0 0.0 0.00 0.00 0.00 95 1018.0
20260906042023 68 258 0.0 0.0 0.00 0.00 0.00 94 1018.0
20260906041519 68 306 0.0 0.9 0.00 0.00 0.00 94 1017.9
20260906041019 68 248 0.9 0.9 0.00 0.00 0.00 94 1018.0
20260906040514 68 250 0.0 0.0 0.00 0.00 0.00 94 1017.8
20260906040010 68 276 0.9 0.9 0.00 0.00 0.00 94 1017.8
20260906035504 68 346 0.0 0.9 0.00 0.00 0.00 94 1017.8
20260906035000 68 321 0.0 0.0 0.00 0.00 0.00 94 1017.7
20260906034500 68 44 0.9 0.9 0.00 0.00 0.00 93 1017.8
20260906033955 68 271 0.9 0.9 0.00 0.00 0.00 93 1017.8
20260906033450 68 294 0.0 0.9 0.00 0.00 0.00 93 1017.7
20260906032946 68 249 0.0 0.0 0.00 0.00 0.00 93 1017.8
20260906032443 68 276 0.0 0.0 0.00 0.00 0.00 93 1017.7
20260906031942 68 242 0.0 0.9 0.00 0.00 0.00 93 1017.9
20260906031438 68 242 0.0 0.0 0.00 0.00 0.00 92 1017.7
20260906030933 68 285 1.7 1.7 0.00 0.00 0.00 92 1017.6
20260906030428 68 247 0.0 0.0 0.00 0.00 0.00 92 1017.8
20260906025928 68 248 0.0 0.9 0.00 0.00 0.00 92 1017.5
20260906025422 68 292 0.0 0.9 0.00 0.00 0.00 92 1017.8
20260906024921 68 258 0.0 0.0 0.00 0.00 0.00 92 1017.8
20260906024420 68 265 0.9 0.9 0.00 0.00 0.00 92 1017.6
20260906023916 68 252 0.0 0.0 0.00 0.00 0.00 91 1017.7
20260906023412 69 186 0.0 0.0 0.00 0.00 0.00 91 1017.6
20260906022912 69 287 0.0 0.0 0.00 0.00 0.00 91 1017.5
20260906022407 69 4 0.0 0.9 0.00 0.00 0.00 91 1017.4
20260906021902 69 118 0.9 0.9 0.00 0.00 0.00 91 1017.8
20260906021403 69 258 0.0 0.0 0.00 0.00 0.00 91 1017.6
20260906020857 69 265 0.9 0.9 0.00 0.00 0.00 91 1017.7
20260906020356 69 52 0.0 0.9 0.00 0.00 0.00 90 1017.9
20260906015851 70 341 2.6 2.6 0.00 0.00 0.00 90 1017.9
20260906015350 70 260 0.9 0.9 0.00 0.00 0.00 90 1018.0
20260906014850 70 249 0.0 0.0 0.00 0.00 0.00 90 1018.0
20260906014350 70 257 0.0 0.0 0.00 0.00 0.00 90 1017.8
20260906013847 70 275 0.0 0.0 0.00 0.00 0.00 89 1017.7
20260906013342 70 353 0.9 0.9 0.00 0.00 0.00 89 1017.8
20260906012837 70 285 0.0 0.0 0.00 0.00 0.00 89 1017.7
20260906012332 70 117 0.0 0.9 0.00 0.00 0.00 89 1017.8
20260906011832 71 353 0.9 0.9 0.00 0.00 0.00 89 1017.8
20260906011327 71 254 0.9 0.9 0.00 0.00 0.00 89 1017.6
20260906010823 71 331 0.9 1.7 0.00 0.00 0.00 89 1017.9
20260906010319 71 319 0.0 0.9 0.00 0.00 0.00 89 1018.0
20260906005814 71 255 0.0 0.0 0.00 0.00 0.00 90 1017.8
20260906005313 71 344 0.9 0.9 0.00 0.00 0.00 90 1017.5
20260906004812 71 328 0.9 4.3 0.00 0.00 0.00 90 1017.4
20260906004312 71 259 0.0 0.9 0.00 0.00 0.00 90 1017.5
20260906003808 71 299 0.9 0.9 0.00 0.00 0.00 90 1017.5
20260906003303 71 2 1.7 1.7 0.00 0.00 0.00 90 1017.0
20260906002759 71 323 0.9 0.9 0.00 0.00 0.00 90 1017.2
20260906002258 71 339 4.3 4.3 0.00 0.00 0.00 90 1017.4
20260906001754 71 47 0.9 1.7 0.00 0.00 0.00 89 1017.0
20260906001253 71 109 0.0 0.9 0.00 0.00 0.00 89 1017.4
20260906000750 71 354 0.0 0.9 0.00 0.00 0.00 89 1017.2
20260906000249 71 97 2.6 4.3 0.00 0.00 0.00 89 1017.1
20260905235744 71 62 0.9 1.7 0.00 0.00 0.00 89 1017.2
20260905235244 71 126 1.7 1.7 0.00 0.00 0.00 89 1017.4
20260905234740 72 348 1.7 1.7 0.00 0.00 0.00 89 1017.2
20260905234235 72 306 0.9 0.9 0.00 0.00 0.00 89 1017.4
20260905233730 72 331 2.6 4.3 0.00 0.00 0.00 88 1017.6
20260905233229 72 333 0.9 2.6 0.00 0.00 0.00 88 1017.2
20260905232724 72 348 0.0 0.9 0.00 0.00 0.00 88 1017.6
20260905232220 72 7 1.7 2.6 0.00 0.00 0.00 88 1017.2
20260905231716 72 76 0.0 1.7 0.00 0.00 0.00 88 1017.1
20260905231211 72 268 1.7 1.7 0.00 0.00 0.00 88 1017.2
20260905230708 72 34 1.7 1.7 0.00 0.00 0.00 88 1017.2
20260905230205 72 9 3.5 5.2 0.00 0.00 0.00 87 1017.0
20260905225704 72 339 2.6 2.6 0.00 0.00 0.00 87 1017.0
20260905225200 72 9 1.7 2.6 0.00 0.00 0.00 87 1017.1
20260905224659 72 256 2.6 4.3 0.00 0.00 0.00 87 1017.0
20260905224154 73 8 3.5 4.3 0.00 0.00 0.00 86 1017.0
20260905223651 73 21 1.7 1.7 0.00 0.00 0.00 86 1016.8
20260905223147 73 331 0.9 2.6 0.00 0.00 0.00 86 1016.9
20260905222642 73 32 1.7 2.6 0.00 0.00 0.00 86 1016.7
20260905222137 74 320 1.7 1.7 0.00 0.00 0.00 86 1017.0
20260905221633 75 17 2.6 4.3 0.00 0.00 0.00 85 1017.0
20260905221129 75 25 0.9 1.7 0.00 0.00 0.00 85 1017.0
20260905220625 75 282 2.6 2.6 0.00 0.00 0.00 85 1016.8
20260905220121 75 71 0.0 0.9 0.00 0.00 0.00 85 1016.8
20260905215620 76 233 1.7 1.7 0.00 0.00 0.00 84 1016.6
20260905215116 76 342 0.0 0.9 0.00 0.00 0.00 84 1016.7
20260905214612 77 316 1.7 2.6 0.00 0.00 0.00 83 1016.6
20260905214111 77 346 1.7 1.7 0.00 0.00 0.00 83 1016.5
20260905213607 77 36 0.9 0.9 0.00 0.00 0.00 83 1016.4
20260905213103 77 313 1.7 2.6 0.00 0.00 0.00 82 1016.3
20260905212602 77 81 2.6 2.6 0.00 0.00 0.00 82 1016.2
20260905212102 77 333 5.2 7.0 0.00 0.00 0.00 81 1016.1
20260905211557 78 343 3.5 4.3 0.00 0.00 0.00 80 1016.1
20260905211053 78 286 2.6 2.6 0.00 0.00 0.00 81 1016.0
20260905210548 78 18 0.9 1.7 0.00 0.00 0.00 81 1016.0
20260905210043 78 52 2.6 2.6 0.00 0.00 0.00 80 1016.0
20260905205543 79 110 2.6 4.3 0.00 0.00 0.00 80 1016.0
20260905205042 80 41 1.7 2.6 0.00 0.00 0.00 79 1016.1
20260905204537 80 15 2.6 2.6 0.00 0.00 0.00 79 1016.1
20260905204032 80 359 0.9 1.7 0.00 0.00 0.00 80 1016.0
20260905203532 80 90 1.7 1.7 0.00 0.00 0.00 81 1015.9
20260905203027 78 54 3.5 5.2 0.00 0.00 0.00 83 1015.8
20260905202522 80 120 2.6 2.6 0.00 0.00 0.00 82 1015.9
20260905202018 80 77 2.6 2.6 0.00 0.00 0.00 80 1016.0
20260905201514 81 34 0.9 0.9 0.00 0.00 0.00 78 1015.9
20260905201013 81 23 4.3 7.0 0.00 0.00 0.00 78 1016.2
20260905200509 81 278 5.2 7.0 0.00 0.00 0.00 77 1015.8
20260905200008 81 325 0.9 1.7 0.00 0.00 0.00 78 1016.0
20260905195503 82 55 1.7 1.7 0.00 0.00 0.00 77 1016.1
20260905194958 82 79 1.7 1.7 0.00 0.00 0.00 76 1016.0
20260905194458 82 317 3.5 4.3 0.00 0.00 0.00 75 1016.1
20260905193958 82 19 2.6 4.3 0.00 0.00 0.00 77 1016.2
20260905193458 82 321 3.5 4.3 0.00 0.00 0.00 77 1016.3
20260905192953 81 291 2.6 4.3 0.00 0.00 0.00 77 1016.3
20260905192448 81 34 4.3 7.0 0.00 0.00 0.00 77 1016.4
20260905191945 80 338 2.6 2.6 0.00 0.00 0.00 79 1016.2
20260905191443 80 253 0.9 1.7 0.00 0.00 0.00 81 1016.4
20260905190943 79 350 2.6 2.6 0.00 0.00 0.00 83 1016.3
20260905190441 78 49 0.9 0.9 0.00 0.00 0.00 84 1016.4
20260905185940 78 341 4.3 7.0 0.00 0.00 0.00 83 1016.5
20260905185435 79 122 2.6 4.3 0.00 0.00 0.00 82 1016.7
20260905184933 79 46 0.9 1.7 0.00 0.00 0.00 83 1016.4
20260905184428 78 354 1.7 1.7 0.00 0.00 0.00 84 1016.5
20260905183927 78 259 0.0 0.9 0.00 0.00 0.00 85 1016.6
20260905183422 78 13 1.7 1.7 0.00 0.00 0.00 85 1016.6
20260905182917 78 297 5.2 7.0 0.00 0.00 0.00 84 1016.8
20260905182416 78 9 0.9 1.7 0.00 0.00 0.00 85 1016.7
20260905181912 78 48 2.6 4.3 0.00 0.00 0.00 86 1016.7
20260905181412 78 297 0.9 0.9 0.00 0.00 0.00 87 1016.6
20260905180911 77 274 1.7 1.7 0.00 0.00 0.00 88 1016.6
20260905180406 77 238 0.0 0.0 0.00 0.00 0.00 88 1016.8
20260905175901 77 23 2.6 5.2 0.00 0.00 0.00 88 1016.8
20260905175401 77 325 1.7 2.6 0.00 0.00 0.00 88 1016.6
20260905174901 77 49 2.6 2.6 0.00 0.00 0.00 88 1016.6
20260905174357 77 359 3.5 6.1 0.00 0.00 0.00 88 1016.4
20260905173852 76 24 0.9 0.9 0.00 0.00 0.00 89 1016.4
20260905173348 76 11 2.6 4.3 0.00 0.00 0.00 89 1016.9
20260905172843 76 351 2.6 4.3 0.00 0.00 0.00 90 1016.6
20260905172341 76 311 0.9 1.7 0.00 0.00 0.00 90 1016.7
20260905171837 76 48 0.9 0.9 0.00 0.00 0.00 89 1016.6
20260905171334 76 341 0.0 0.9 0.00 0.00 0.00 89 1016.7
20260905170830 76 303 1.7 1.7 0.00 0.00 0.00 89 1016.7
20260905170326 76 4 0.0 0.9 0.00 0.00 0.00 90 1016.8
20260905165825 75 305 0.9 0.9 0.00 0.00 0.00 90 1016.9
20260905165321 75 211 0.0 0.9 0.00 0.00 0.00 90 1016.9
20260905164820 75 69 1.7 1.7 0.00 0.00 0.00 90 1017.1
20260905164315 75 354 0.0 0.9 0.00 0.00 0.00 90 1017.0
20260905163811 75 265 2.6 2.6 0.00 0.00 0.00 90 1017.0
20260905163307 75 299 0.9 0.9 0.00 0.00 0.00 90 1016.9
20260905162803 75 296 0.9 0.9 0.00 0.00 0.00 90 1016.8
20260905162305 75 312 0.9 0.9 0.00 0.00 0.00 90 1016.6
20260905161757 75 110 2.6 2.6 0.00 0.00 0.00 90 1016.9
20260905161256 75 19 2.6 2.6 0.00 0.00 0.00 90 1016.9
20260905160755 75 290 2.6 4.3 0.00 0.00 0.00 90 1016.8
20260905160255 75 342 4.3 6.1 0.00 0.00 0.00 90 1016.9
20260905155750 75 274 0.9 0.9 0.00 0.00 0.00 91 1016.9
20260905155248 75 316 2.6 4.3 0.00 0.00 0.00 91 1016.5
20260905154743 75 76 1.7 1.7 0.00 0.00 0.00 91 1016.6
20260905154239 75 67 0.9 0.9 0.00 0.00 0.00 91 1016.7
20260905153734 75 343 7.0 8.7 0.00 0.00 0.00 90 1016.5
20260905153230 75 326 5.2 6.1 0.00 0.00 0.00 91 1016.6
20260905152725 75 302 0.9 0.9 0.00 0.00 0.00 91 1016.6
20260905152225 75 323 0.9 0.9 0.00 0.00 0.00 91 1016.3
20260905151724 75 323 2.6 2.6 0.00 0.00 0.00 91 1016.4
20260905151221 75 21 0.9 1.7 0.00 0.00 0.00 91 1016.2
20260905150715 75 256 0.9 0.9 0.00 0.00 0.00 91 1016.2
20260905150214 75 285 0.0 0.0 0.00 0.00 0.00 91 1016.2
20260905145712 75 297 1.7 1.7 0.00 0.00 0.00 92 1016.1
20260905145207 74 258 0.9 0.9 0.00 0.00 0.00 92 1016.3
20260905144706 74 249 1.7 2.6 0.00 0.00 0.00 92 1016.2
20260905144206 74 12 0.0 0.9 0.00 0.00 0.00 92 1016.2
20260905143706 74 297 0.9 0.9 0.00 0.00 0.00 93 1016.2
20260905143206 74 319 2.6 4.3 0.00 0.00 0.00 93 1016.0
20260905142704 74 274 0.9 0.9 0.00 0.00 0.00 93 1016.1
20260905142159 74 18 1.7 1.7 0.00 0.00 0.00 93 1016.0
20260905141654 74 214 0.9 0.9 0.00 0.00 0.00 93 1016.0
20260905141150 74 267 0.9 1.7 0.00 0.00 0.00 94 1015.9
20260905140645 74 288 2.6 2.6 0.00 0.00 0.00 94 1016.0
20260905140144 74 279 3.5 4.3 0.00 0.00 0.00 94 1015.7
20260905135640 73 57 0.9 0.9 0.00 0.00 0.00 95 1015.8
20260905135135 73 283 0.9 0.9 0.00 0.00 0.00 95 1015.8
20260905134630 73 251 0.0 0.9 0.00 0.00 0.00 96 1015.8
20260905134128 73 250 0.0 0.0 0.00 0.00 0.00 96 1015.8
20260905133624 73 31 1.7 1.7 0.00 0.00 0.00 97 1015.9
20260905133124 73 294 1.7 1.7 0.00 0.00 0.00 97 1016.0
20260905132624 73 30 1.7 1.7 0.00 0.00 0.00 97 1016.0
20260905132119 72 339 3.5 4.3 0.00 0.00 0.00 97 1016.3
20260905131614 72 251 0.0 0.9 0.00 0.00 0.00 97 1016.3
20260905131109 72 31 2.6 4.3 0.00 0.00 0.00 97 1015.9
20260905130609 72 324 2.6 4.3 0.00 0.00 0.00 98 1015.8
20260905125603 73 293 0.9 0.9 0.00 0.00 0.00 98 1015.6
20260905125058 73 325 0.9 0.9 0.00 0.00 0.00 98 1015.6
20260905124555 72 334 1.7 1.7 0.00 0.00 0.00 98 1015.5
20260905124051 72 253 0.9 1.7 0.00 0.00 0.00 98 1015.5
20260905123546 72 294 0.9 0.9 0.00 0.00 0.00 98 1015.2
20260905123043 72 25 0.9 1.7 0.00 0.00 0.00 98 1015.1
20260905122542 72 274 0.0 0.0 0.00 0.00 0.00 98 1015.1